createdAt,value
2023-03-10T00:01:20.753Z,72.91
2023-03-10T00:03:48.564Z,75.50
2023-03-10T00:06:18.097Z,77.08
2023-03-10T00:08:44.980Z,78.70
2023-03-10T00:11:12.671Z,80.88
2023-03-10T00:13:39.353Z,81.38
2023-03-10T00:16:06.872Z,81.95
2023-03-10T00:18:33.519Z,83.51
2023-03-10T00:21:01.783Z,84.21
2023-03-10T00:23:28.446Z,84.31
2023-03-10T00:26:00.592Z,84.45
2023-03-10T00:28:28.530Z,83.69
2023-03-10T00:30:59.235Z,83.93
2023-03-10T00:33:26.176Z,84.59
2023-03-10T00:36:02.254Z,84.35
2023-03-10T00:38:29.272Z,82.92
2023-03-10T00:41:10.864Z,83.30
2023-03-10T00:43:38.940Z,82.10
2023-03-10T00:46:06.364Z,82.51
2023-03-10T00:48:33.546Z,83.35
2023-03-10T00:51:00.208Z,82.90
2023-03-10T00:53:27.449Z,82.65
2023-03-10T00:56:06.485Z,83.61
2023-03-10T00:58:33.964Z,83.47
2023-03-10T01:01:01.880Z,84.18
2023-03-10T01:03:29.388Z,84.07
2023-03-10T01:05:56.956Z,84.54
2023-03-10T01:08:24.206Z,84.45
2023-03-10T01:10:51.111Z,84.29
2023-03-10T01:13:19.329Z,85.14
2023-03-10T01:15:48.672Z,84.64
2023-03-10T01:18:16.702Z,85.55
2023-03-10T01:20:44.113Z,85.30
2023-03-10T01:23:15.423Z,85.01
2023-03-10T01:25:42.474Z,85.49
2023-03-10T01:28:09.431Z,85.48
2023-03-10T01:30:36.069Z,85.69
2023-03-10T01:33:02.831Z,85.79
2023-03-10T01:35:30.471Z,85.30
2023-03-10T01:37:57.722Z,85.04
2023-03-10T01:40:26.880Z,84.41
2023-03-10T01:43:19.069Z,84.67
2023-03-10T01:45:45.607Z,84.35
2023-03-10T01:48:14.226Z,86.28
2023-03-10T01:50:42.126Z,86.29
2023-03-10T01:53:09.016Z,86.14
2023-03-10T01:55:40.204Z,85.32
2023-03-10T01:58:08.777Z,86.94
2023-03-10T02:00:35.618Z,87.22
2023-03-10T02:03:19.984Z,87.61
2023-03-10T02:05:51.999Z,87.00
2023-03-10T02:08:20.583Z,85.64
2023-03-10T02:10:48.343Z,85.73
2023-03-10T02:13:14.979Z,85.57
2023-03-10T02:15:41.745Z,86.03
2023-03-10T02:18:12.383Z,86.24
2023-03-10T02:20:52.783Z,86.09
2023-03-10T02:23:30.969Z,87.57
2023-03-10T02:26:05.322Z,86.66
2023-03-10T02:28:31.953Z,86.67
2023-03-10T02:31:01.602Z,86.50
2023-03-10T02:33:30.820Z,86.06
2023-03-10T02:36:15.255Z,84.48
2023-03-10T02:38:42.129Z,83.97
2023-03-10T02:41:17.768Z,83.97
2023-03-10T02:43:44.453Z,83.69
2023-03-10T02:46:11.098Z,83.21
2023-03-10T02:48:38.970Z,83.18
2023-03-10T02:51:11.523Z,83.69
2023-03-10T02:53:38.205Z,82.97
2023-03-10T02:56:05.453Z,81.85
2023-03-10T02:58:32.307Z,82.05
2023-03-10T03:00:59.398Z,81.23
2023-03-10T03:03:26.464Z,81.49
2023-03-10T03:05:53.590Z,79.97
2023-03-10T03:08:21.073Z,81.91
2023-03-10T03:10:47.876Z,82.40
2023-03-10T03:13:14.721Z,83.37
2023-03-10T03:15:41.662Z,82.34
2023-03-10T03:18:08.554Z,80.73
2023-03-10T03:20:37.272Z,81.83
2023-03-10T03:23:04.689Z,81.36
2023-03-10T03:25:36.029Z,80.86
2023-03-10T03:28:02.655Z,80.96
2023-03-10T03:30:29.749Z,81.16
2023-03-10T03:32:56.678Z,81.06
2023-03-10T03:35:27.531Z,80.43
2023-03-10T03:37:55.662Z,81.18
2023-03-10T03:40:24.742Z,81.14
2023-03-10T03:42:53.174Z,82.10
2023-03-10T03:45:22.834Z,82.63
2023-03-10T03:47:49.736Z,81.74
2023-03-10T03:50:17.610Z,82.25
2023-03-10T03:52:45.114Z,82.87
2023-03-10T03:55:13.848Z,83.31
2023-03-10T03:57:40.908Z,83.69
2023-03-10T04:00:12.261Z,83.13
2023-03-10T04:02:39.494Z,84.33
2023-03-10T04:05:06.787Z,83.89
2023-03-10T04:07:33.953Z,83.62
2023-03-10T04:10:00.528Z,83.56
2023-03-10T04:12:29.966Z,83.46
2023-03-10T04:14:56.474Z,84.32
2023-03-10T04:17:23.167Z,84.09
2023-03-10T04:20:04.561Z,82.80
2023-03-10T04:22:33.134Z,84.11
2023-03-10T04:24:59.800Z,84.75
2023-03-10T04:27:26.475Z,85.48
2023-03-10T04:29:53.260Z,85.10
2023-03-10T04:32:19.874Z,84.61
2023-03-10T04:34:46.452Z,85.22
2023-03-10T04:37:13.101Z,86.52
2023-03-10T04:39:39.954Z,88.23
2023-03-10T04:42:06.878Z,87.45
2023-03-10T04:44:33.547Z,87.81
2023-03-10T04:47:00.301Z,88.82
2023-03-10T04:49:27.176Z,88.22
2023-03-10T04:51:53.797Z,87.95
2023-03-10T04:54:20.319Z,87.38
2023-03-10T04:56:47.050Z,86.83
2023-03-10T04:59:13.774Z,87.30
2023-03-10T05:01:40.488Z,86.49
2023-03-10T05:04:07.241Z,87.32
2023-03-10T05:06:33.852Z,88.05
2023-03-10T05:09:03.357Z,87.70
2023-03-10T05:11:30.085Z,87.94
2023-03-10T05:13:56.854Z,87.86
2023-03-10T05:16:23.983Z,88.30
2023-03-10T05:18:50.555Z,88.49
2023-03-10T05:21:17.162Z,88.87
2023-03-10T05:23:43.852Z,87.80
2023-03-10T05:26:11.103Z,88.56
2023-03-10T05:28:37.950Z,88.98
2023-03-10T05:31:12.323Z,88.93
2023-03-10T05:33:39.186Z,88.24
2023-03-10T05:36:11.785Z,88.35
2023-03-10T05:38:38.753Z,87.68
2023-03-10T05:41:09.787Z,88.40
2023-03-10T05:43:37.123Z,87.50
2023-03-10T05:46:04.939Z,87.85
2023-03-10T05:48:32.038Z,88.28
2023-03-10T05:51:11.159Z,87.63
2023-03-10T05:53:38.320Z,88.69
2023-03-10T05:56:07.540Z,88.03
2023-03-10T05:58:34.140Z,87.94
2023-03-10T06:01:01.001Z,88.18
2023-03-10T06:03:32.085Z,89.67
2023-03-10T06:05:59.725Z,89.33
2023-03-10T06:08:29.989Z,89.96
2023-03-10T06:10:57.735Z,89.30
2023-03-10T06:13:26.063Z,88.10
2023-03-10T06:15:58.622Z,87.05
2023-03-10T06:18:26.254Z,87.10
2023-03-10T06:20:53.762Z,87.55
2023-03-10T06:23:21.213Z,87.10
2023-03-10T06:26:00.745Z,86.85
2023-03-10T06:28:33.127Z,86.13
2023-03-10T06:31:01.835Z,84.52
2023-03-10T06:33:32.860Z,83.03
2023-03-10T06:35:59.556Z,83.15
2023-03-10T06:38:27.988Z,83.13
2023-03-10T06:40:54.790Z,84.53
2023-03-10T06:43:21.599Z,84.01
2023-03-10T06:45:48.569Z,85.28
2023-03-10T06:48:16.170Z,85.19
2023-03-10T06:50:44.652Z,84.71
2023-03-10T06:53:11.793Z,84.79
2023-03-10T06:55:38.644Z,84.69
2023-03-10T06:58:05.597Z,84.69
2023-03-10T07:00:32.320Z,84.49
2023-03-10T07:02:59.703Z,84.68
2023-03-10T07:05:27.482Z,83.21
2023-03-10T07:07:55.560Z,82.61
2023-03-10T07:10:23.170Z,82.06
2023-03-10T07:12:55.112Z,81.52
2023-03-10T07:15:22.891Z,81.08
2023-03-10T07:17:49.590Z,80.75
2023-03-10T07:20:16.343Z,80.40
2023-03-10T07:22:43.076Z,78.97
2023-03-10T07:25:09.871Z,78.99
2023-03-10T07:27:36.549Z,78.16
2023-03-10T07:30:04.054Z,77.77
2023-03-10T07:32:30.704Z,76.66
2023-03-10T07:34:57.311Z,75.46
2023-03-10T07:37:23.873Z,74.12
2023-03-10T07:39:50.468Z,75.04
2023-03-10T07:42:17.082Z,74.95
2023-03-10T07:44:43.727Z,75.85
2023-03-10T07:47:10.330Z,76.58
2023-03-10T07:49:37.292Z,77.36
2023-03-10T07:52:04.244Z,76.50
2023-03-10T07:54:30.804Z,75.30
2023-03-10T07:56:57.423Z,76.51
2023-03-10T07:59:24.016Z,76.38
2023-03-10T08:01:50.699Z,76.51
2023-03-10T08:04:17.581Z,76.03
2023-03-10T08:06:45.138Z,76.62
2023-03-10T08:09:11.762Z,76.44
2023-03-10T08:11:38.405Z,75.51
2023-03-10T08:14:05.135Z,76.58
2023-03-10T08:16:31.726Z,74.74
2023-03-10T08:18:58.540Z,75.20
2023-03-10T08:21:25.182Z,75.47
2023-03-10T08:23:51.748Z,74.70
2023-03-10T08:26:19.202Z,73.71
2023-03-10T08:28:46.362Z,73.01
2023-03-10T08:31:18.871Z,73.08
2023-03-10T08:33:46.523Z,73.42
2023-03-10T08:36:17.891Z,74.58
2023-03-10T08:38:44.903Z,73.38
2023-03-10T08:41:20.960Z,74.39
2023-03-10T08:43:49.455Z,75.76
2023-03-10T08:46:17.538Z,73.62
2023-03-10T08:48:44.186Z,75.02
2023-03-10T08:51:14.444Z,73.18
2023-03-10T08:53:42.864Z,75.03
2023-03-10T08:56:09.536Z,76.90
2023-03-10T08:58:36.487Z,78.15
2023-03-10T09:01:03.720Z,76.24
2023-03-10T09:03:31.761Z,76.28
2023-03-10T09:05:58.895Z,75.88
2023-03-10T09:08:27.551Z,77.40
2023-03-10T09:10:54.617Z,78.13
2023-03-10T09:13:21.960Z,77.25
2023-03-10T09:15:48.706Z,77.07
2023-03-10T09:18:16.103Z,77.47
2023-03-10T09:20:43.857Z,78.07
2023-03-10T09:23:17.221Z,78.59
2023-03-10T09:25:44.255Z,78.03
2023-03-10T09:28:12.050Z,77.96
2023-03-10T09:30:41.060Z,78.68
2023-03-10T09:33:13.862Z,77.29
2023-03-10T09:35:41.767Z,77.75
2023-03-10T09:38:15.000Z,77.19
2023-03-10T09:41:04.840Z,75.00
2023-03-10T09:43:40.626Z,74.83
2023-03-10T09:46:13.350Z,73.49
2023-03-10T09:48:49.291Z,76.10
2023-03-10T09:51:23.791Z,75.13
2023-03-10T09:54:18.370Z,74.93
2023-03-10T09:56:45.104Z,73.13
2023-03-10T09:59:32.316Z,72.47
2023-03-10T10:02:01.008Z,71.64
2023-03-10T10:04:37.827Z,72.11
2023-03-10T10:07:12.443Z,72.17
2023-03-10T10:10:02.920Z,71.07
2023-03-10T10:12:29.541Z,69.06
2023-03-10T10:15:14.611Z,68.73
2023-03-10T10:17:56.637Z,70.31
2023-03-10T10:20:38.204Z,71.92
2023-03-10T10:23:13.672Z,72.22
2023-03-10T10:25:42.411Z,70.72
2023-03-10T10:28:20.039Z,69.85
2023-03-10T10:30:47.060Z,69.16
2023-03-10T10:33:15.463Z,71.04
2023-03-10T10:35:59.706Z,70.95
2023-03-10T10:38:32.157Z,71.28
2023-03-10T10:41:15.719Z,73.77
2023-03-10T10:43:44.501Z,74.11
2023-03-10T10:46:13.852Z,73.65
2023-03-10T10:48:48.320Z,72.18
2023-03-10T10:51:29.310Z,73.88
2023-03-10T10:54:22.652Z,73.85
2023-03-10T10:56:58.506Z,75.00
2023-03-10T10:59:31.980Z,73.74
2023-03-10T11:02:01.690Z,74.56
2023-03-10T11:04:40.977Z,74.42
2023-03-10T11:07:25.393Z,73.94
2023-03-10T11:09:52.347Z,75.32
2023-03-10T11:12:31.575Z,77.78
2023-03-10T11:15:23.298Z,77.45
2023-03-10T11:18:08.970Z,78.87
2023-03-10T11:21:00.621Z,100.00
2023-03-10T11:23:36.587Z,100.00
2023-03-10T11:26:24.989Z,100.00
2023-03-10T11:28:54.586Z,100.00
2023-03-10T11:31:30.641Z,100.00
2023-03-10T11:34:06.943Z,100.00
2023-03-10T11:36:59.041Z,100.00
2023-03-10T11:39:37.856Z,100.00
2023-03-10T11:42:16.391Z,100.00
2023-03-10T11:45:18.116Z,100.00
2023-03-10T11:48:09.546Z,100.00
2023-03-10T11:50:52.903Z,100.00
2023-03-10T11:53:44.981Z,100.00
2023-03-10T11:56:14.906Z,100.00
2023-03-10T11:58:53.246Z,100.00
2023-03-10T12:01:26.035Z,100.00
2023-03-10T12:04:00.171Z,100.00
2023-03-10T12:06:37.529Z,100.00
2023-03-10T12:09:07.140Z,100.00
2023-03-10T12:11:35.501Z,100.00
2023-03-10T12:14:02.519Z,100.00
2023-03-10T12:16:35.583Z,100.00
2023-03-10T12:19:04.164Z,100.00
2023-03-10T12:21:32.296Z,100.00
2023-03-10T12:24:01.633Z,100.00
2023-03-10T12:26:41.335Z,100.00
2023-03-10T12:29:20.304Z,100.00
2023-03-10T12:31:52.783Z,100.00
2023-03-10T12:34:22.538Z,100.00
2023-03-10T12:37:05.308Z,100.00
2023-03-10T12:39:41.695Z,100.00
2023-03-10T12:42:32.360Z,100.00
2023-03-10T12:45:17.489Z,100.00
2023-03-10T12:48:03.105Z,100.00
2023-03-10T12:50:54.826Z,100.00
2023-03-10T12:53:33.847Z,100.00
2023-03-10T12:56:20.601Z,100.00
2023-03-10T12:59:02.431Z,100.00
2023-03-10T13:01:36.682Z,100.00
2023-03-10T13:04:07.791Z,100.00
2023-03-10T13:06:39.067Z,100.00
2023-03-10T13:09:11.084Z,100.00
2023-03-10T13:11:48.819Z,100.00
2023-03-10T13:14:21.244Z,100.00
2023-03-10T13:16:55.886Z,100.00
2023-03-10T13:19:25.017Z,100.00
2023-03-10T13:21:52.398Z,100.00
2023-03-10T13:24:31.534Z,100.00
2023-03-10T13:27:17.147Z,100.00
2023-03-10T13:29:57.441Z,100.00
2023-03-10T13:32:25.343Z,100.00
2023-03-10T13:34:52.665Z,100.00
2023-03-10T13:37:19.309Z,100.00
2023-03-10T13:39:46.129Z,100.00
2023-03-10T13:42:40.969Z,100.00
2023-03-10T13:45:24.417Z,100.00
2023-03-10T13:47:52.429Z,100.00
2023-03-10T13:50:19.207Z,100.00
2023-03-10T13:52:57.831Z,100.00
2023-03-10T13:55:24.763Z,100.00
2023-03-10T13:57:51.893Z,100.00
2023-03-10T14:00:21.705Z,100.00
2023-03-10T14:02:50.917Z,100.00
2023-03-10T14:05:41.403Z,100.00
2023-03-10T14:08:29.235Z,100.00
2023-03-10T14:11:32.067Z,100.00
2023-03-10T14:14:00.283Z,100.00
2023-03-10T14:16:47.784Z,100.00
2023-03-10T14:19:34.728Z,100.00
2023-03-10T14:22:02.441Z,100.00
2023-03-10T14:24:29.136Z,100.00
2023-03-10T14:27:00.184Z,100.00
2023-03-10T14:29:27.334Z,100.00
2023-03-10T14:31:53.974Z,100.00
2023-03-10T14:34:20.697Z,100.00
2023-03-10T14:36:47.343Z,100.00
2023-03-10T14:39:14.499Z,100.00
2023-03-10T14:41:41.085Z,100.00
2023-03-10T14:44:10.304Z,100.00
2023-03-10T14:46:37.138Z,100.00
2023-03-10T14:49:16.830Z,100.00
2023-03-10T14:51:43.417Z,100.00
2023-03-10T14:54:18.935Z,100.00
2023-03-10T14:56:46.241Z,100.00
2023-03-10T14:59:16.500Z,100.00
2023-03-10T15:01:43.467Z,100.00
2023-03-10T15:04:16.105Z,100.00
2023-03-10T15:06:43.718Z,100.00
2023-03-10T15:09:10.973Z,100.00
2023-03-10T15:11:38.798Z,100.00
2023-03-10T15:14:13.658Z,100.00
2023-03-10T15:16:40.235Z,100.00
2023-03-10T15:19:06.858Z,100.00
2023-03-10T15:21:33.497Z,100.00
2023-03-10T15:24:00.057Z,100.00
2023-03-10T15:26:26.691Z,100.00
2023-03-10T15:28:53.336Z,100.00
2023-03-10T15:31:20.527Z,100.00
2023-03-10T15:33:47.110Z,100.00
2023-03-10T15:36:13.859Z,100.00
2023-03-10T15:38:40.555Z,100.00
2023-03-10T15:41:07.261Z,100.00
2023-03-10T15:43:34.294Z,100.00
2023-03-10T15:46:06.748Z,100.00
2023-03-10T15:48:34.836Z,100.00
2023-03-10T15:51:01.558Z,100.00
2023-03-10T15:53:28.120Z,100.00
2023-03-10T15:55:56.274Z,100.00
2023-03-10T15:58:22.980Z,100.00
2023-03-10T16:00:52.067Z,100.00
2023-03-10T16:03:18.667Z,100.00
2023-03-10T16:05:50.259Z,100.00
2023-03-10T16:08:19.335Z,100.00
2023-03-10T16:10:54.321Z,100.00
2023-03-10T16:13:22.069Z,100.00
2023-03-10T16:15:48.658Z,100.00
2023-03-10T16:18:15.238Z,100.00
2023-03-10T16:20:41.800Z,100.00
2023-03-10T16:23:08.430Z,100.00
2023-03-10T16:25:35.014Z,100.00
2023-03-10T16:28:01.629Z,100.00
2023-03-10T16:30:28.454Z,100.00
2023-03-10T16:33:00.703Z,100.00
2023-03-10T16:35:27.476Z,100.00
2023-03-10T16:37:54.257Z,100.00
2023-03-10T16:40:20.888Z,100.00
2023-03-10T16:42:47.459Z,100.00
2023-03-10T16:45:14.300Z,100.00
2023-03-10T16:47:42.243Z,100.00
2023-03-10T16:50:12.797Z,100.00
2023-03-10T16:52:42.351Z,100.00
2023-03-10T16:55:17.007Z,100.00
2023-03-10T16:57:45.842Z,100.00
2023-03-10T17:00:13.499Z,100.00
2023-03-10T17:02:40.104Z,100.00
2023-03-10T17:05:06.834Z,100.00
2023-03-10T17:07:34.812Z,100.00
2023-03-10T17:10:02.989Z,100.00
2023-03-10T17:12:29.774Z,100.00
2023-03-10T17:14:58.141Z,100.00
2023-03-10T17:17:24.816Z,100.00
2023-03-10T17:19:51.659Z,100.00
2023-03-10T17:22:18.399Z,100.00
2023-03-10T17:24:45.011Z,100.00
2023-03-10T17:27:11.691Z,100.00
2023-03-10T17:29:38.538Z,100.00
2023-03-10T17:32:05.455Z,100.00
2023-03-10T17:34:32.106Z,100.00
2023-03-10T17:36:58.680Z,100.00
2023-03-10T17:39:27.728Z,100.00
2023-03-10T17:41:55.023Z,100.00
2023-03-10T17:44:21.767Z,100.00
2023-03-10T17:46:48.520Z,100.00
2023-03-10T17:49:16.811Z,100.00
2023-03-10T17:51:44.876Z,100.00
2023-03-10T17:54:14.666Z,100.00
2023-03-10T17:56:41.522Z,100.00
2023-03-10T17:59:10.765Z,100.00
2023-03-10T18:01:37.482Z,100.00
2023-03-10T18:04:04.149Z,100.00
2023-03-10T18:06:33.128Z,100.00
2023-03-10T18:09:01.538Z,100.00
2023-03-10T18:11:28.632Z,100.00
2023-03-10T18:13:55.555Z,100.00
2023-03-10T18:16:27.760Z,100.00
2023-03-10T18:18:55.950Z,100.00
2023-03-10T18:21:23.420Z,100.00
2023-03-10T18:23:51.446Z,100.00
2023-03-10T18:26:20.925Z,100.00
2023-03-10T18:28:47.622Z,100.00
2023-03-10T18:31:19.956Z,100.00
2023-03-10T18:33:48.504Z,100.00
2023-03-10T18:36:17.296Z,100.00
2023-03-10T18:38:45.058Z,100.00
2023-03-10T18:41:11.802Z,100.00
2023-03-10T18:43:38.908Z,100.00
2023-03-10T18:46:06.888Z,100.00
2023-03-10T18:48:33.676Z,100.00
2023-03-10T18:51:02.217Z,100.00
2023-03-10T18:53:29.304Z,100.00
2023-03-10T18:55:57.908Z,100.00
2023-03-10T18:58:24.940Z,100.00
2023-03-10T19:00:51.742Z,100.00
2023-03-10T19:03:18.952Z,100.00
2023-03-10T19:05:45.679Z,100.00
2023-03-10T19:08:12.437Z,100.00
2023-03-10T19:10:39.905Z,100.00
2023-03-10T19:13:08.066Z,100.00
2023-03-10T19:15:36.678Z,100.00
2023-03-10T19:18:03.762Z,100.00
2023-03-10T19:20:30.374Z,100.00
2023-03-10T19:22:57.403Z,100.00
2023-03-10T19:25:24.072Z,100.00
2023-03-10T19:27:50.832Z,100.00
2023-03-10T19:30:23.162Z,100.00
2023-03-10T19:32:49.882Z,100.00
2023-03-10T19:35:18.559Z,100.00
2023-03-10T19:37:47.127Z,100.00
2023-03-10T19:40:17.100Z,100.00
2023-03-10T19:42:44.613Z,100.00
2023-03-10T19:45:16.769Z,100.00
2023-03-10T19:47:47.069Z,100.00
2023-03-10T19:50:16.910Z,100.00
2023-03-10T19:52:48.862Z,100.00
2023-03-10T19:55:19.775Z,100.00
2023-03-10T19:57:51.809Z,100.00
2023-03-10T20:00:24.963Z,100.00
2023-03-10T20:02:55.572Z,100.00
2023-03-10T20:05:25.487Z,100.00
2023-03-10T20:07:52.569Z,100.00
2023-03-10T20:10:19.433Z,100.00
2023-03-10T20:12:51.191Z,100.00
2023-03-10T20:15:18.438Z,100.00
2023-03-10T20:17:45.066Z,100.00
2023-03-10T20:20:15.012Z,100.00
2023-03-10T20:22:45.614Z,100.00
2023-03-10T20:25:17.399Z,100.00
2023-03-10T20:27:45.291Z,100.00
2023-03-10T20:30:22.142Z,100.00
2023-03-10T20:32:49.349Z,100.00
2023-03-10T20:35:17.653Z,100.00
2023-03-10T20:37:44.325Z,100.00
2023-03-10T20:40:14.226Z,100.00
2023-03-10T20:42:41.772Z,100.00
2023-03-10T20:45:10.600Z,100.00
2023-03-10T20:47:37.837Z,100.00
2023-03-10T20:50:06.980Z,100.00
2023-03-10T20:52:35.920Z,100.00
2023-03-10T20:55:03.908Z,100.00
2023-03-10T20:57:33.232Z,100.00
2023-03-10T21:00:00.609Z,100.00
2023-03-10T21:02:27.320Z,100.00
2023-03-10T21:04:55.420Z,100.00
2023-03-10T21:07:22.030Z,100.00
2023-03-10T21:09:48.599Z,100.00
2023-03-10T21:12:18.598Z,100.00
2023-03-10T21:14:45.701Z,100.00
2023-03-10T21:17:12.623Z,100.00
2023-03-10T21:19:39.245Z,100.00
2023-03-10T21:22:05.881Z,100.00
2023-03-10T21:24:32.547Z,100.00
2023-03-10T21:27:00.312Z,100.00
2023-03-10T21:29:27.275Z,100.00
2023-03-10T21:31:53.993Z,100.00
2023-03-10T21:34:20.545Z,100.00
2023-03-10T21:36:47.105Z,100.00
2023-03-10T21:39:13.753Z,100.00
2023-03-10T21:41:40.501Z,100.00
2023-03-10T21:44:07.665Z,100.00
2023-03-10T21:46:34.342Z,100.00
2023-03-10T21:49:00.992Z,100.00
2023-03-10T21:51:27.974Z,100.00
2023-03-10T21:53:55.986Z,100.00
2023-03-10T21:56:23.400Z,100.00
2023-03-10T21:58:49.997Z,100.00
2023-03-10T22:01:18.444Z,100.00
2023-03-10T22:03:45.098Z,100.00
2023-03-10T22:06:11.834Z,100.00
2023-03-10T22:08:38.743Z,100.00
2023-03-10T22:11:06.989Z,100.00
2023-03-10T22:13:35.079Z,100.00
2023-03-10T22:16:03.043Z,100.00
2023-03-10T22:18:29.830Z,100.00
2023-03-10T22:20:56.535Z,100.00
2023-03-10T22:23:23.160Z,100.00
2023-03-10T22:25:49.763Z,100.00
2023-03-10T22:28:17.081Z,100.00
2023-03-10T22:30:43.654Z,100.00
2023-03-10T22:33:10.374Z,100.00
2023-03-10T22:35:38.067Z,100.00
2023-03-10T22:38:05.686Z,100.00
2023-03-10T22:40:32.840Z,100.00
2023-03-10T22:42:59.480Z,100.00
2023-03-10T22:45:28.882Z,100.00
2023-03-10T22:47:59.454Z,100.00
2023-03-10T22:50:32.701Z,100.00
2023-03-10T22:53:04.975Z,100.00
2023-03-10T22:55:36.529Z,100.00
2023-03-10T22:58:05.368Z,100.00
2023-03-10T23:00:33.414Z,100.00
2023-03-10T23:03:00.071Z,100.00
2023-03-10T23:05:27.564Z,100.00
2023-03-10T23:07:55.183Z,100.00
2023-03-10T23:10:27.185Z,100.00
2023-03-10T23:12:54.345Z,100.00
2023-03-10T23:15:25.814Z,100.00
2023-03-10T23:17:54.353Z,100.00
2023-03-10T23:20:24.096Z,100.00
2023-03-10T23:22:50.782Z,100.00
2023-03-10T23:25:27.736Z,100.00
2023-03-10T23:27:54.679Z,100.00
2023-03-10T23:30:21.286Z,100.00
2023-03-10T23:32:50.112Z,100.00
2023-03-10T23:35:23.384Z,100.00
2023-03-10T23:37:50.404Z,100.00
2023-03-10T23:40:19.016Z,100.00
2023-03-10T23:42:45.668Z,100.00
2023-03-10T23:45:16.231Z,100.00
2023-03-10T23:47:43.200Z,100.00
2023-03-10T23:50:16.787Z,100.00
2023-03-10T23:52:44.128Z,100.00
2023-03-10T23:55:23.592Z,100.00
2023-03-10T23:57:50.121Z,100.00
